createdAt,value
2022-11-26T00:02:23.344Z,30.23
2022-11-26T00:04:50.370Z,29.35
2022-11-26T00:07:21.983Z,28.50
2022-11-26T00:09:49.626Z,28.83
2022-11-26T00:12:21.896Z,28.73
2022-11-26T00:14:48.314Z,28.80
2022-11-26T00:17:15.680Z,28.98
2022-11-26T00:19:42.993Z,26.63
2022-11-26T00:22:24.137Z,26.73
2022-11-26T00:27:17.620Z,26.40
2022-11-26T00:29:43.998Z,28.85
2022-11-26T00:32:16.486Z,27.83
2022-11-26T00:34:43.242Z,27.65
2022-11-26T00:37:20.569Z,28.05
2022-11-26T00:39:47.523Z,26.58
2022-11-26T00:42:14.118Z,29.38
2022-11-26T00:44:40.700Z,29.00
2022-11-26T00:47:09.401Z,29.83
2022-11-26T00:49:36.083Z,28.90
2022-11-26T00:52:03.006Z,29.17
2022-11-26T00:54:29.703Z,29.95
2022-11-26T00:56:56.089Z,29.30
2022-11-26T00:59:23.180Z,29.75
2022-11-26T01:01:50.077Z,29.95
2022-11-26T01:04:16.502Z,28.17
2022-11-26T01:06:44.719Z,28.02
2022-11-26T01:09:19.686Z,30.73
2022-11-26T01:11:50.874Z,29.92
2022-11-26T01:14:21.004Z,31.90
2022-11-26T01:16:48.487Z,29.17
2022-11-26T01:19:16.320Z,31.33
2022-11-26T01:21:42.746Z,30.73
2022-11-26T01:24:09.689Z,30.85
2022-11-26T01:26:42.138Z,33.28
2022-11-26T01:29:15.513Z,31.92
2022-11-26T01:31:42.009Z,31.05
2022-11-26T01:34:08.451Z,34.78
2022-11-26T01:36:37.144Z,33.40
2022-11-26T01:39:14.533Z,32.92
2022-11-26T01:42:02.381Z,34.90
2022-11-26T01:44:31.749Z,36.17
2022-11-26T01:46:59.799Z,35.88
2022-11-26T01:49:30.578Z,36.72
2022-11-26T01:52:17.974Z,37.58
2022-11-26T01:54:44.890Z,36.30
2022-11-26T01:57:24.184Z,37.47
2022-11-26T01:59:53.958Z,39.35
2022-11-26T02:02:24.570Z,38.60
2022-11-26T02:05:02.855Z,40.63
2022-11-26T02:07:29.347Z,38.08
2022-11-26T02:09:55.787Z,39.72
2022-11-26T02:12:22.327Z,40.85
2022-11-26T02:14:48.807Z,41.50
2022-11-26T02:17:29.865Z,41.83
2022-11-26T02:20:24.614Z,41.55
2022-11-26T02:23:32.854Z,41.97
2022-11-26T02:26:20.995Z,43.75
2022-11-26T02:29:11.773Z,43.03
2022-11-26T02:31:45.811Z,43.50
2022-11-26T02:34:36.990Z,43.22
2022-11-26T02:37:08.165Z,42.28
2022-11-26T02:39:34.581Z,46.60
2022-11-26T02:42:03.994Z,43.47
2022-11-26T02:44:39.633Z,44.30
2022-11-26T02:47:11.533Z,43.72
2022-11-26T02:49:40.266Z,45.45
2022-11-26T02:52:07.675Z,43.10
2022-11-26T02:54:36.792Z,45.42
2022-11-26T02:57:07.025Z,41.88
2022-11-26T02:59:34.439Z,42.23
2022-11-26T03:02:07.945Z,43.15
2022-11-26T03:04:39.429Z,43.08
2022-11-26T03:07:08.606Z,42.47
2022-11-26T03:09:40.653Z,43.25
2022-11-26T03:12:07.153Z,44.55
2022-11-26T03:14:33.630Z,46.17
2022-11-26T03:17:00.045Z,45.08
2022-11-26T03:19:26.512Z,45.17
2022-11-26T03:21:52.890Z,43.75
2022-11-26T03:24:19.290Z,44.40
2022-11-26T03:26:45.703Z,44.80
2022-11-26T03:29:12.094Z,44.25
2022-11-26T03:31:38.533Z,44.10
2022-11-26T03:34:04.961Z,42.35
2022-11-26T03:36:31.388Z,43.83
2022-11-26T03:38:57.797Z,46.28
2022-11-26T03:41:24.185Z,44.38
2022-11-26T03:43:50.578Z,46.70
2022-11-26T03:46:17.071Z,46.65
2022-11-26T03:48:43.591Z,45.92
2022-11-26T03:51:10.020Z,46.55
2022-11-26T03:53:36.534Z,47.03
2022-11-26T03:56:02.989Z,45.08
2022-11-26T03:58:29.907Z,48.08
2022-11-26T04:00:56.401Z,47.00
2022-11-26T04:03:23.091Z,47.00
2022-11-26T04:05:49.566Z,48.10
2022-11-26T04:08:15.950Z,44.65
2022-11-26T04:10:42.365Z,44.60
2022-11-26T04:13:08.764Z,43.17
2022-11-26T04:15:35.218Z,43.72
2022-11-26T04:18:01.624Z,45.97
2022-11-26T04:20:28.121Z,46.90
2022-11-26T04:22:54.538Z,45.28
2022-11-26T04:25:20.970Z,45.70
2022-11-26T04:27:47.369Z,42.47
2022-11-26T04:30:14.634Z,41.63
2022-11-26T04:32:41.032Z,43.83
2022-11-26T04:35:09.257Z,42.90
2022-11-26T04:37:35.684Z,44.10
2022-11-26T04:40:02.085Z,42.13
2022-11-26T04:42:28.501Z,43.72
2022-11-26T04:44:54.897Z,42.92
2022-11-26T04:47:21.316Z,42.63
2022-11-26T04:49:47.692Z,38.47
2022-11-26T04:52:14.218Z,42.17
2022-11-26T04:54:40.779Z,41.80
2022-11-26T04:57:07.303Z,39.22
2022-11-26T04:59:33.696Z,38.83
2022-11-26T05:02:00.287Z,37.70
2022-11-26T05:04:28.163Z,37.65
2022-11-26T05:06:55.333Z,34.47
2022-11-26T05:09:22.190Z,36.30
2022-11-26T05:11:48.583Z,33.58
2022-11-26T05:14:14.980Z,30.45
2022-11-26T05:16:41.434Z,31.77
2022-11-26T05:19:07.862Z,30.00
2022-11-26T05:21:34.254Z,32.72
2022-11-26T05:24:00.669Z,30.95
2022-11-26T05:26:27.366Z,28.92
2022-11-26T05:28:53.740Z,30.73
2022-11-26T05:31:20.189Z,27.77
2022-11-26T05:33:46.573Z,27.20
2022-11-26T05:36:12.969Z,29.20
2022-11-26T05:38:39.365Z,29.35
2022-11-26T05:41:05.789Z,26.08
2022-11-26T05:43:32.205Z,29.08
2022-11-26T05:46:07.207Z,28.17
2022-11-26T05:48:33.952Z,28.58
2022-11-26T05:51:01.337Z,26.75
2022-11-26T05:53:28.324Z,27.33
2022-11-26T05:55:54.729Z,24.55
2022-11-26T05:58:21.179Z,25.45
2022-11-26T06:00:47.617Z,24.42
2022-11-26T06:03:18.520Z,25.63
2022-11-26T06:05:46.334Z,24.90
2022-11-26T06:08:12.719Z,23.77
2022-11-26T06:10:42.115Z,22.65
2022-11-26T06:13:09.976Z,23.65
2022-11-26T06:15:36.367Z,22.30
2022-11-26T06:18:02.750Z,22.67
2022-11-26T06:20:29.164Z,22.70
2022-11-26T06:22:55.543Z,20.67
2022-11-26T06:25:21.948Z,21.05
2022-11-26T06:27:48.334Z,20.42
2022-11-26T06:30:14.765Z,19.83
2022-11-26T06:32:41.238Z,19.33
2022-11-26T06:35:07.947Z,22.48
2022-11-26T06:37:34.338Z,18.58
2022-11-26T06:40:00.992Z,17.50
2022-11-26T06:42:27.592Z,17.85
2022-11-26T06:44:58.351Z,18.30
2022-11-26T06:47:26.488Z,19.52
2022-11-26T06:49:53.509Z,20.10
2022-11-26T06:52:19.917Z,18.77
2022-11-26T06:54:46.292Z,19.60
2022-11-26T06:57:12.682Z,20.38
2022-11-26T06:59:39.074Z,19.70
2022-11-26T07:02:05.514Z,19.77
2022-11-26T07:04:31.986Z,17.63
2022-11-26T07:06:58.378Z,20.20
2022-11-26T07:09:24.951Z,19.58
2022-11-26T07:11:51.370Z,18.80
2022-11-26T07:14:18.066Z,19.50
2022-11-26T07:16:44.470Z,18.48
2022-11-26T07:19:13.224Z,19.15
2022-11-26T07:21:39.818Z,17.73
2022-11-26T07:24:06.388Z,18.33
2022-11-26T07:26:32.765Z,17.50
2022-11-26T07:28:59.158Z,17.52
2022-11-26T07:31:25.569Z,18.77
2022-11-26T07:33:51.968Z,17.83
2022-11-26T07:36:24.496Z,18.15
2022-11-26T07:38:54.659Z,18.40
2022-11-26T07:41:21.468Z,18.57
2022-11-26T07:43:47.860Z,17.52
2022-11-26T07:46:17.445Z,18.45
2022-11-26T07:48:44.214Z,17.05
2022-11-26T07:51:19.969Z,14.55
2022-11-26T07:53:47.325Z,15.68
2022-11-26T07:56:14.238Z,15.25
2022-11-26T07:58:40.664Z,16.30
2022-11-26T08:01:08.902Z,15.02
2022-11-26T08:03:43.394Z,13.95
2022-11-26T08:06:12.492Z,14.43
2022-11-26T08:08:39.069Z,15.45
2022-11-26T08:11:12.768Z,16.83
2022-11-26T08:13:39.195Z,15.75
2022-11-26T08:16:05.762Z,13.48
2022-11-26T08:18:32.276Z,15.52
2022-11-26T08:20:59.210Z,16.58
2022-11-26T08:23:26.027Z,14.07
2022-11-26T08:26:20.519Z,13.85
2022-11-26T08:28:39.189Z,13.75
2022-11-26T08:31:08.745Z,14.02
2022-11-26T08:33:36.150Z,13.10
2022-11-26T08:36:07.866Z,15.20
2022-11-26T08:38:35.756Z,12.45
2022-11-26T08:41:04.638Z,13.43
2022-11-26T08:43:51.687Z,11.98
2022-11-26T08:46:17.494Z,12.38
2022-11-26T08:48:45.167Z,12.05
2022-11-26T08:51:12.524Z,13.88
2022-11-26T08:53:39.622Z,12.60
2022-11-26T08:56:08.956Z,12.48
2022-11-26T08:58:40.362Z,12.93
2022-11-26T09:01:11.517Z,13.18
2022-11-26T09:03:39.057Z,11.60
2022-11-26T09:06:07.073Z,12.40
2022-11-26T09:08:44.869Z,11.38
2022-11-26T09:11:12.042Z,11.23
2022-11-26T09:13:38.424Z,10.95
2022-11-26T09:16:05.071Z,11.63
2022-11-26T09:18:31.475Z,10.73
2022-11-26T09:21:02.316Z,10.95
2022-11-26T09:23:28.970Z,10.02
2022-11-26T09:25:55.410Z,9.95
2022-11-26T09:28:21.831Z,9.73
2022-11-26T09:30:48.234Z,10.38
2022-11-26T09:33:14.717Z,9.25
2022-11-26T09:35:41.285Z,11.13
2022-11-26T09:38:07.893Z,10.95
2022-11-26T09:40:54.704Z,11.23
2022-11-26T09:43:33.512Z,10.27
2022-11-26T09:46:01.370Z,10.63
2022-11-26T09:48:30.692Z,9.27
2022-11-26T09:51:07.046Z,11.40
2022-11-26T09:53:37.718Z,9.93
2022-11-26T09:56:06.630Z,9.93
2022-11-26T09:59:02.292Z,10.77
2022-11-26T10:01:31.121Z,10.80
2022-11-26T10:03:58.258Z,10.68
2022-11-26T10:06:40.814Z,12.35
2022-11-26T10:09:21.647Z,13.73
2022-11-26T10:11:54.039Z,12.82
2022-11-26T10:14:47.777Z,13.45
2022-11-26T10:17:40.891Z,12.82
2022-11-26T10:20:40.818Z,12.60
2022-11-26T10:23:12.996Z,14.65
2022-11-26T10:25:43.322Z,15.13
2022-11-26T10:28:21.148Z,14.10
2022-11-26T10:31:02.592Z,14.57
2022-11-26T10:33:34.220Z,12.32
2022-11-26T10:36:00.871Z,12.52
2022-11-26T10:38:27.270Z,12.32
2022-11-26T10:40:53.661Z,12.10
2022-11-26T10:43:24.450Z,12.73
2022-11-26T10:45:53.942Z,12.00
2022-11-26T10:48:24.555Z,13.80
2022-11-26T10:51:15.310Z,13.63
2022-11-26T10:53:59.886Z,13.43
2022-11-26T10:56:35.938Z,14.18
2022-11-26T10:59:05.574Z,15.05
2022-11-26T11:01:36.999Z,13.98
2022-11-26T11:04:22.662Z,13.45
2022-11-26T11:06:49.264Z,13.35
2022-11-26T11:09:28.541Z,13.45
2022-11-26T11:12:13.571Z,14.43
2022-11-26T11:14:43.052Z,13.65
2022-11-26T11:17:28.367Z,13.85
2022-11-26T11:19:57.530Z,13.88
2022-11-26T11:22:24.068Z,14.30
2022-11-26T11:24:50.653Z,13.75
2022-11-26T11:27:27.046Z,13.25
2022-11-26T11:29:53.505Z,13.52
2022-11-26T11:32:40.080Z,12.02
2022-11-26T11:35:32.679Z,11.68
2022-11-26T11:37:59.410Z,9.68
2022-11-26T11:40:29.152Z,10.77
2022-11-26T11:43:04.096Z,11.55
2022-11-26T11:45:37.139Z,8.25
2022-11-26T11:48:29.778Z,7.43
2022-11-26T11:51:17.618Z,7.50
2022-11-26T11:54:11.878Z,7.75
2022-11-26T11:56:46.389Z,7.75
2022-11-26T12:00:12.504Z,6.57
2022-11-26T12:02:57.479Z,6.90
2022-11-26T12:05:47.583Z,6.20
2022-11-26T12:08:44.430Z,6.57
2022-11-26T12:11:34.691Z,5.78
2022-11-26T12:14:07.686Z,7.37
2022-11-26T12:16:38.689Z,6.38
2022-11-26T12:21:58.904Z,6.70
2022-11-26T12:24:44.546Z,6.22
2022-11-26T12:27:38.930Z,7.28
2022-11-26T12:30:14.078Z,7.10
2022-11-26T12:32:48.210Z,8.57
2022-11-26T12:35:32.611Z,10.63
2022-11-26T12:38:08.925Z,10.75
2022-11-26T12:40:45.836Z,12.13
2022-11-26T12:43:18.952Z,11.05
2022-11-26T12:45:51.221Z,10.63
2022-11-26T12:48:27.857Z,13.07
2022-11-26T12:51:04.169Z,11.65
2022-11-26T12:53:53.998Z,11.38
2022-11-26T12:56:42.953Z,11.60
2022-11-26T12:59:50.198Z,11.55
2022-11-26T13:02:22.700Z,12.70
2022-11-26T13:04:50.282Z,13.00
2022-11-26T13:07:48.305Z,11.15
2022-11-26T13:10:51.003Z,11.73
2022-11-26T13:13:48.238Z,11.82
2022-11-26T13:16:26.659Z,10.18
2022-11-26T13:19:06.437Z,12.07
2022-11-26T13:21:44.888Z,11.77
2022-11-26T13:24:51.366Z,12.02
2022-11-26T13:27:41.466Z,12.60
2022-11-26T13:30:24.746Z,12.00
2022-11-26T13:33:20.470Z,12.00
2022-11-26T13:36:12.099Z,11.13
2022-11-26T13:39:19.858Z,12.00
2022-11-26T13:42:07.842Z,11.50
2022-11-26T13:45:02.862Z,11.00
2022-11-26T13:47:40.866Z,11.85
2022-11-26T13:50:23.647Z,12.27
2022-11-26T13:53:06.059Z,13.85
2022-11-26T13:55:50.694Z,12.93
2022-11-26T13:58:25.418Z,13.27
2022-11-26T14:00:51.931Z,12.45
2022-11-26T14:03:48.211Z,12.90
2022-11-26T14:06:15.551Z,11.95
2022-11-26T14:08:47.280Z,12.70
2022-11-26T14:11:45.626Z,14.93
2022-11-26T14:14:30.542Z,12.40
2022-11-26T14:17:15.792Z,11.32
2022-11-26T14:19:45.272Z,11.70
2022-11-26T14:22:11.644Z,10.98
2022-11-26T14:24:50.272Z,11.82
2022-11-26T14:27:39.590Z,11.88
2022-11-26T14:30:05.923Z,11.43
2022-11-26T14:32:56.038Z,10.45
2022-11-26T14:35:33.905Z,10.95
2022-11-26T14:38:02.486Z,10.90
2022-11-26T14:40:34.986Z,11.68
2022-11-26T14:43:15.794Z,12.00
2022-11-26T14:45:44.731Z,11.35
2022-11-26T14:48:26.050Z,10.95
2022-11-26T14:50:54.192Z,10.25
2022-11-26T14:53:23.620Z,10.55
2022-11-26T14:55:50.726Z,10.95
2022-11-26T14:58:33.598Z,10.63
2022-11-26T15:01:15.100Z,11.90
2022-11-26T15:03:42.576Z,11.70
2022-11-26T15:06:24.378Z,11.73
2022-11-26T15:08:50.771Z,11.63
2022-11-26T15:11:21.334Z,12.13
2022-11-26T15:13:48.088Z,12.05
2022-11-26T15:16:37.945Z,11.82
2022-11-26T15:19:05.742Z,12.30
2022-11-26T15:21:33.565Z,12.80
2022-11-26T15:24:07.008Z,13.32
2022-11-26T15:26:35.684Z,11.88
2022-11-26T15:29:03.260Z,11.55
2022-11-26T15:31:40.706Z,13.13
2022-11-26T15:34:12.220Z,14.18
2022-11-26T15:36:38.933Z,12.88
2022-11-26T15:39:07.801Z,12.98
2022-11-26T15:41:42.664Z,14.07
2022-11-26T15:44:27.861Z,17.38
2022-11-26T15:46:57.154Z,15.18
2022-11-26T15:49:28.736Z,14.98
2022-11-26T15:51:59.939Z,15.50
2022-11-26T15:54:49.540Z,14.88
2022-11-26T15:57:38.210Z,13.68
2022-11-26T16:00:27.628Z,13.02
2022-11-26T16:02:54.344Z,12.57
2022-11-26T16:05:32.944Z,11.90
2022-11-26T16:08:05.435Z,11.40
2022-11-26T16:10:36.792Z,11.23
2022-11-26T16:13:15.058Z,13.27
2022-11-26T16:15:56.542Z,12.52
2022-11-26T16:18:28.188Z,13.18
2022-11-26T16:21:03.323Z,12.13
2022-11-26T16:23:30.361Z,11.18
2022-11-26T16:26:17.574Z,11.85
2022-11-26T16:28:45.898Z,13.63
2022-11-26T16:31:13.615Z,13.57
2022-11-26T16:33:40.562Z,16.02
2022-11-26T16:36:28.555Z,13.57
2022-11-26T16:38:54.981Z,13.25
2022-11-26T16:41:22.484Z,12.93
2022-11-26T16:43:49.567Z,14.02
2022-11-26T16:46:20.024Z,13.75
2022-11-26T16:48:47.158Z,15.82
2022-11-26T16:51:13.544Z,17.17
2022-11-26T16:53:39.949Z,14.75
2022-11-26T16:56:10.801Z,14.98
2022-11-26T16:58:37.867Z,15.25
2022-11-26T17:01:04.415Z,14.73
2022-11-26T17:03:33.264Z,14.60
2022-11-26T17:06:12.196Z,12.70
2022-11-26T17:08:38.646Z,14.13
2022-11-26T17:11:05.076Z,14.13
2022-11-26T17:13:31.523Z,14.75
2022-11-26T17:15:58.149Z,14.88
2022-11-26T17:18:26.056Z,14.25
2022-11-26T17:20:53.678Z,18.65
2022-11-26T17:23:20.411Z,20.35
2022-11-26T17:25:51.812Z,19.17
2022-11-26T17:28:18.207Z,18.10
2022-11-26T17:30:44.989Z,17.00
2022-11-26T17:33:11.871Z,15.48
2022-11-26T17:35:38.418Z,15.85
2022-11-26T17:38:13.520Z,18.73
2022-11-26T17:40:39.950Z,18.63
2022-11-26T17:43:06.370Z,19.08
2022-11-26T17:45:32.772Z,18.38
2022-11-26T17:47:59.157Z,17.70
2022-11-26T17:50:27.300Z,19.20
2022-11-26T17:52:54.717Z,16.67
2022-11-26T17:55:23.035Z,18.02
2022-11-26T17:57:49.602Z,17.92
2022-11-26T18:00:20.339Z,16.88
2022-11-26T18:02:46.796Z,19.15
2022-11-26T18:05:13.602Z,18.35
2022-11-26T18:07:40.691Z,19.38
2022-11-26T18:10:11.019Z,19.52
2022-11-26T18:12:38.535Z,16.73
2022-11-26T18:15:05.606Z,15.93
2022-11-26T18:17:32.032Z,17.02
2022-11-26T18:19:58.410Z,17.67
2022-11-26T18:22:26.204Z,17.88
2022-11-26T18:24:56.332Z,20.10
2022-11-26T18:27:26.606Z,19.95
2022-11-26T18:29:53.022Z,18.98
2022-11-26T18:32:20.010Z,20.13
2022-11-26T18:34:48.914Z,19.00
2022-11-26T18:37:15.597Z,22.50
2022-11-26T18:39:42.236Z,22.33
2022-11-26T18:42:36.087Z,23.65
2022-11-26T18:44:55.106Z,22.25
2022-11-26T18:47:21.492Z,21.73
2022-11-26T18:49:48.239Z,20.40
2022-11-26T18:52:14.827Z,20.67
2022-11-26T18:54:41.241Z,18.98
2022-11-26T18:57:07.637Z,19.70
2022-11-26T18:59:34.978Z,20.42
2022-11-26T19:02:01.468Z,20.15
2022-11-26T19:04:27.934Z,20.83
2022-11-26T19:06:54.335Z,20.48
2022-11-26T19:09:20.924Z,19.65
2022-11-26T19:11:48.326Z,21.23
2022-11-26T19:14:15.938Z,19.77
2022-11-26T19:16:43.287Z,18.27
2022-11-26T19:19:10.104Z,18.70
2022-11-26T19:21:36.839Z,19.52
2022-11-26T19:24:05.909Z,18.95
2022-11-26T19:26:32.305Z,20.08
2022-11-26T19:29:04.945Z,20.77
2022-11-26T19:31:35.830Z,20.27
2022-11-26T19:34:06.030Z,20.92
2022-11-26T19:36:33.475Z,21.53
2022-11-26T19:39:01.075Z,20.35
2022-11-26T19:41:28.855Z,21.55
2022-11-26T19:43:55.321Z,22.17
2022-11-26T19:46:24.494Z,22.25
2022-11-26T19:48:52.031Z,22.55
2022-11-26T19:51:20.326Z,24.98
2022-11-26T19:53:48.940Z,22.40
2022-11-26T19:56:21.330Z,22.33
2022-11-26T19:58:47.974Z,21.00
2022-11-26T20:01:16.515Z,23.67
2022-11-26T20:03:44.150Z,22.98
2022-11-26T20:06:14.819Z,22.98
2022-11-26T20:08:41.278Z,22.27
2022-11-26T20:11:08.958Z,22.95
2022-11-26T20:13:36.706Z,22.70
2022-11-26T20:16:07.563Z,23.45
2022-11-26T20:18:36.250Z,23.05
2022-11-26T20:21:05.465Z,23.00
2022-11-26T20:23:31.861Z,23.80
2022-11-26T20:25:58.303Z,22.42
2022-11-26T20:28:25.939Z,24.40
2022-11-26T20:30:52.582Z,23.67
2022-11-26T20:33:19.479Z,25.92
2022-11-26T20:35:46.038Z,23.10
2022-11-26T20:38:13.004Z,21.02
2022-11-26T20:40:42.198Z,20.05
2022-11-26T20:43:09.813Z,22.73
2022-11-26T20:45:36.834Z,22.80
2022-11-26T20:48:04.139Z,22.35
2022-11-26T20:50:30.792Z,21.20
2022-11-26T20:52:57.427Z,21.88
2022-11-26T20:55:25.061Z,22.05
2022-11-26T20:57:51.730Z,21.40
2022-11-26T21:00:20.451Z,21.52
2022-11-26T21:02:50.327Z,21.13
2022-11-26T21:05:16.977Z,21.77
2022-11-26T21:07:43.493Z,20.67
2022-11-26T21:10:10.693Z,23.13
2022-11-26T21:12:37.433Z,21.33
2022-11-26T21:15:05.153Z,23.75
2022-11-26T21:17:31.585Z,20.77
2022-11-26T21:19:58.004Z,23.17
2022-11-26T21:22:24.571Z,22.85
2022-11-26T21:24:50.957Z,21.70
2022-11-26T21:27:17.362Z,22.38
2022-11-26T21:29:46.095Z,21.83
2022-11-26T21:32:12.483Z,22.08
2022-11-26T21:34:38.861Z,22.58
2022-11-26T21:37:05.329Z,21.45
2022-11-26T21:39:31.948Z,20.52
2022-11-26T21:41:58.337Z,20.58
2022-11-26T21:44:24.723Z,21.98
2022-11-26T21:46:51.200Z,22.77
2022-11-26T21:49:17.658Z,21.33
2022-11-26T21:51:44.062Z,21.88
2022-11-26T21:54:10.558Z,21.58
2022-11-26T21:56:37.076Z,23.00
2022-11-26T21:59:03.644Z,22.90
2022-11-26T22:01:32.827Z,23.45
2022-11-26T22:04:02.449Z,24.10
2022-11-26T22:06:29.346Z,21.77
2022-11-26T22:08:56.252Z,22.20
2022-11-26T22:11:28.456Z,23.55
2022-11-26T22:13:55.702Z,22.20
2022-11-26T22:16:23.848Z,23.73
2022-11-26T22:18:50.784Z,22.60
2022-11-26T22:21:26.210Z,22.85
2022-11-26T22:23:53.040Z,24.02
2022-11-26T22:26:20.278Z,23.17
2022-11-26T22:28:47.372Z,22.65
2022-11-26T22:31:22.558Z,22.05
2022-11-26T22:33:53.098Z,22.45
2022-11-26T22:36:19.531Z,21.63
2022-11-26T22:38:45.984Z,22.52
2022-11-26T22:41:13.918Z,23.73
2022-11-26T22:43:41.137Z,23.17
2022-11-26T22:46:11.141Z,20.42
2022-11-26T22:48:37.872Z,22.85
2022-11-26T22:51:04.446Z,22.90
2022-11-26T22:53:33.226Z,22.65
2022-11-26T22:56:01.931Z,21.65
2022-11-26T22:58:29.466Z,21.27
2022-11-26T23:01:01.801Z,21.67
2022-11-26T23:03:30.070Z,20.73
2022-11-26T23:05:56.493Z,22.02
2022-11-26T23:08:22.885Z,19.63
2022-11-26T23:10:49.422Z,20.13
2022-11-26T23:13:16.273Z,18.98
2022-11-26T23:15:45.217Z,19.58
2022-11-26T23:18:13.886Z,20.33
2022-11-26T23:20:41.455Z,20.33
2022-11-26T23:23:08.112Z,20.83
2022-11-26T23:25:38.928Z,21.00
2022-11-26T23:28:06.545Z,21.08
2022-11-26T23:30:33.300Z,20.10
2022-11-26T23:32:59.667Z,19.50
2022-11-26T23:35:26.063Z,20.80
2022-11-26T23:37:52.436Z,17.90
2022-11-26T23:40:18.858Z,18.73
2022-11-26T23:42:45.242Z,16.80
2022-11-26T23:45:11.640Z,17.13
2022-11-26T23:47:39.777Z,16.90
2022-11-26T23:50:07.014Z,17.10
2022-11-26T23:52:34.098Z,16.83
2022-11-26T23:55:00.485Z,18.42
2022-11-26T23:57:26.876Z,18.27
2022-11-26T23:59:53.266Z,17.08
